Ucluelet, Canada
Current Conditions -  °F | °C
As of 9:00 AM on Sunday 21 Dec 2014 (Local Time) from CYAZ Reporting Station
Rain Showers Rain Showers  
Wind Chill:   Ceiling: 2500
Heat Index:   Visibility: 8mi
Dew Point:   Wind: 2mph
Humidity: 93%   Direction: 180°S
Pressure: 29.84"   Gusts: NA
Location:  48.94°N, 125.54°W
Report Text: CYAZ 211700Z 18002KT 8SM VCSH FEW005 FEW015 BKN025TCU BKN220 08/07 A2984 RMK SF1CF2TCU3CI2 SF TR SLP103
Loading
Personal Weather Stations






























Interactive Weather Map New forecast layout! Learn more

10-Day Weather Forecast

Advertisements
Track Severe Weather on mobile